createdAt,value
2023-02-07T00:03:30.743Z,7.90
2023-02-07T00:09:23.768Z,9.57
2023-02-07T00:15:17.290Z,8.27
2023-02-07T00:21:14.015Z,10.33
2023-02-07T00:27:08.087Z,8.70
2023-02-07T00:33:01.611Z,6.03
2023-02-07T00:39:00.048Z,7.53
2023-02-07T00:44:53.523Z,7.60
2023-02-07T00:50:46.929Z,7.43
2023-02-07T00:56:41.722Z,7.17
2023-02-07T01:02:34.740Z,5.90
2023-02-07T01:08:28.281Z,5.13
2023-02-07T01:14:23.076Z,5.93
2023-02-07T01:20:16.692Z,6.90
2023-02-07T01:26:09.696Z,7.13
2023-02-07T01:32:04.524Z,6.33
2023-02-07T01:37:58.755Z,6.87
2023-02-07T01:44:01.183Z,6.10
2023-02-07T01:49:59.076Z,5.73
2023-02-07T01:55:55.351Z,8.20
2023-02-07T02:01:49.035Z,6.83
2023-02-07T02:07:45.413Z,7.37
2023-02-07T02:13:46.434Z,7.90
2023-02-07T02:20:10.525Z,8.93
2023-02-07T02:26:42.130Z,7.03
2023-02-07T02:33:04.015Z,7.73
2023-02-07T02:39:08.391Z,9.57
2023-02-07T02:45:04.191Z,7.80
2023-02-07T02:50:59.668Z,10.93
2023-02-07T02:57:20.391Z,7.77
2023-02-07T03:03:32.350Z,8.00
2023-02-07T03:09:38.869Z,10.90
2023-02-07T03:15:42.079Z,7.90
2023-02-07T03:21:40.207Z,8.40
2023-02-07T03:27:35.786Z,9.57
2023-02-07T03:33:29.692Z,7.37
2023-02-07T03:39:23.444Z,10.60
2023-02-07T03:45:20.532Z,9.50
2023-02-07T03:51:13.931Z,8.10
2023-02-07T03:57:07.349Z,9.93
2023-02-07T04:03:02.082Z,10.50
2023-02-07T04:08:55.479Z,9.20
2023-02-07T04:14:48.479Z,12.33
2023-02-07T04:20:43.243Z,11.30
2023-02-07T04:26:36.882Z,9.90
2023-02-07T04:32:30.310Z,7.80
2023-02-07T04:38:25.636Z,9.57
2023-02-07T04:44:19.031Z,9.70
2023-02-07T04:50:12.491Z,11.67
2023-02-07T04:56:08.020Z,8.20
2023-02-07T05:02:01.442Z,10.80
2023-02-07T05:07:54.990Z,9.00
2023-02-07T05:13:50.620Z,9.90
2023-02-07T05:19:44.156Z,10.20
2023-02-07T05:25:38.076Z,10.03
2023-02-07T05:31:47.207Z,9.17
2023-02-07T05:37:40.665Z,9.77
2023-02-07T05:43:33.628Z,9.07
2023-02-07T05:49:28.211Z,9.90
2023-02-07T05:55:21.403Z,8.77
2023-02-07T06:01:14.860Z,9.37
2023-02-07T06:07:09.749Z,9.80
2023-02-07T06:13:02.742Z,9.83
2023-02-07T06:18:56.338Z,9.83
2023-02-07T06:24:51.145Z,9.70
2023-02-07T06:30:45.639Z,16.90
2023-02-07T06:36:38.770Z,12.03
2023-02-07T06:42:33.336Z,12.00
2023-02-07T06:48:26.429Z,13.67
2023-02-07T06:54:19.755Z,15.10
2023-02-07T07:00:15.788Z,13.43
2023-02-07T07:06:08.821Z,13.73
2023-02-07T07:12:02.397Z,13.70
2023-02-07T07:17:57.259Z,13.00
2023-02-07T07:23:50.581Z,14.07
2023-02-07T07:29:43.593Z,15.40
2023-02-07T07:35:38.399Z,17.40
2023-02-07T07:41:31.802Z,16.27
2023-02-07T07:47:25.277Z,16.57
2023-02-07T07:53:20.496Z,14.83
2023-02-07T07:59:23.710Z,15.17
2023-02-07T08:05:17.777Z,18.57
2023-02-07T08:11:12.631Z,15.10
2023-02-07T08:17:06.001Z,16.63
2023-02-07T08:22:59.208Z,20.80
2023-02-07T08:28:54.087Z,16.70
2023-02-07T08:34:47.195Z,17.27
2023-02-07T08:40:41.124Z,15.77
2023-02-07T08:46:35.614Z,20.07
2023-02-07T08:52:29.891Z,18.30
2023-02-07T08:58:22.878Z,18.50
2023-02-07T09:04:18.101Z,18.57
2023-02-07T09:10:11.654Z,16.40
2023-02-07T09:16:04.722Z,16.07
2023-02-07T09:21:59.348Z,18.00
2023-02-07T09:27:52.820Z,16.20
2023-02-07T09:33:45.955Z,18.13
2023-02-07T09:39:43.030Z,18.03
2023-02-07T09:45:41.572Z,18.87
2023-02-07T09:51:37.484Z,18.47
2023-02-07T09:57:37.905Z,17.90
2023-02-07T10:03:33.001Z,16.73
2023-02-07T10:09:29.937Z,16.67
2023-02-07T10:15:36.191Z,16.80
2023-02-07T10:21:39.988Z,19.50
2023-02-07T10:27:36.842Z,19.93
2023-02-07T10:33:34.639Z,18.43
2023-02-07T10:39:32.754Z,19.13
2023-02-07T10:45:26.194Z,19.40
2023-02-07T10:51:29.009Z,19.90
2023-02-07T10:57:23.416Z,20.87
2023-02-07T11:03:20.556Z,19.90
2023-02-07T11:09:22.121Z,24.23
2023-02-07T11:15:18.880Z,21.57
2023-02-07T11:21:25.327Z,20.87
2023-02-07T11:27:22.596Z,22.50
2023-02-07T11:33:20.794Z,23.30
2023-02-07T11:39:17.835Z,23.27
2023-02-07T11:45:17.394Z,23.07
2023-02-07T11:51:18.294Z,24.57
2023-02-07T11:57:15.567Z,26.27
2023-02-07T12:03:22.609Z,23.60
2023-02-07T12:09:33.037Z,26.40
2023-02-07T12:15:32.769Z,25.10
2023-02-07T12:21:32.249Z,27.67
2023-02-07T12:27:30.768Z,27.43
2023-02-07T12:33:34.259Z,23.70
2023-02-07T12:39:36.606Z,24.70
2023-02-07T12:45:47.355Z,24.50
2023-02-07T12:51:53.943Z,25.83
2023-02-07T12:57:56.122Z,25.23
2023-02-07T13:04:12.947Z,21.83
2023-02-07T13:10:19.764Z,22.77
2023-02-07T13:16:20.272Z,20.07
2023-02-07T13:22:23.618Z,19.00
2023-02-07T13:28:26.884Z,20.97
2023-02-07T13:34:24.280Z,17.20
2023-02-07T13:40:32.113Z,17.43
2023-02-07T13:46:56.260Z,17.63
2023-02-07T13:52:57.742Z,18.30
2023-02-07T13:59:12.039Z,14.73
2023-02-07T14:05:10.965Z,17.13
2023-02-07T14:11:27.626Z,14.53
2023-02-07T14:17:53.994Z,17.00
2023-02-07T14:24:06.474Z,15.70
2023-02-07T14:30:22.347Z,17.27
2023-02-07T14:36:26.702Z,13.87
2023-02-07T14:42:23.334Z,16.07
2023-02-07T14:48:37.353Z,13.13
2023-02-07T14:54:37.201Z,14.13
2023-02-07T15:00:35.708Z,13.93
2023-02-07T15:06:32.779Z,14.10
2023-02-07T15:12:28.509Z,13.17
2023-02-07T15:18:23.742Z,12.20
2023-02-07T15:24:24.622Z,10.90
2023-02-07T15:30:20.542Z,13.77
2023-02-07T15:36:30.171Z,13.50
2023-02-07T15:42:24.790Z,14.13
2023-02-07T15:48:18.250Z,12.00
2023-02-07T15:54:18.392Z,15.33
2023-02-07T16:00:19.056Z,14.30
2023-02-07T16:06:19.292Z,17.17
2023-02-07T16:12:49.736Z,26.70
2023-02-07T16:18:46.298Z,25.50
2023-02-07T16:24:43.009Z,22.27
2023-02-07T16:30:39.362Z,26.83
2023-02-07T16:36:34.179Z,25.03
2023-02-07T16:42:27.183Z,25.47
2023-02-07T16:48:20.668Z,24.87
2023-02-07T16:54:16.263Z,24.80
2023-02-07T17:00:14.534Z,27.30
2023-02-07T17:06:08.667Z,24.13
2023-02-07T17:12:03.572Z,29.33
2023-02-07T17:17:59.769Z,23.30
2023-02-07T17:23:52.844Z,26.70
2023-02-07T17:29:47.232Z,20.37
2023-02-07T17:35:41.049Z,21.40
2023-02-07T17:41:34.803Z,24.50
2023-02-07T17:47:29.555Z,23.47
2023-02-07T17:53:23.646Z,27.53
2023-02-07T17:59:23.757Z,28.90
2023-02-07T18:05:19.528Z,28.80
2023-02-07T18:11:14.617Z,21.10
2023-02-07T18:17:07.621Z,30.10
2023-02-07T18:23:02.375Z,25.60
2023-02-07T18:28:55.590Z,25.07
2023-02-07T18:34:49.285Z,27.20
2023-02-07T18:40:43.718Z,26.40
2023-02-07T18:46:37.230Z,30.23
2023-02-07T18:52:30.638Z,28.53
2023-02-07T18:58:25.380Z,25.63
2023-02-07T19:04:19.023Z,28.13
2023-02-07T19:10:12.716Z,24.90
2023-02-07T19:16:09.514Z,22.53
2023-02-07T19:22:03.201Z,25.23
2023-02-07T19:27:56.580Z,25.40
2023-02-07T19:33:53.352Z,25.77
2023-02-07T19:39:46.617Z,35.50
2023-02-07T19:45:39.728Z,42.13
2023-02-07T19:51:34.316Z,43.97
2023-02-07T19:57:28.037Z,52.10
2023-02-07T20:03:21.499Z,32.73
2023-02-07T20:09:16.198Z,29.43
2023-02-07T20:15:10.360Z,31.50
2023-02-07T20:21:11.390Z,37.67
2023-02-07T20:27:06.712Z,33.70
2023-02-07T20:32:59.869Z,27.53
2023-02-07T20:38:53.105Z,25.60
2023-02-07T20:44:47.639Z,27.03
2023-02-07T20:50:41.574Z,25.87
2023-02-07T20:56:36.717Z,26.47
2023-02-07T21:02:31.176Z,21.10
2023-02-07T21:08:25.165Z,19.30
2023-02-07T21:14:20.549Z,19.50
2023-02-07T21:20:16.770Z,20.37
2023-02-07T21:26:11.788Z,19.90
2023-02-07T21:32:05.029Z,31.60
2023-02-07T21:37:59.951Z,35.80
2023-02-07T21:43:54.476Z,30.60
2023-02-07T21:49:47.946Z,33.10
2023-02-07T21:55:42.216Z,20.23
2023-02-07T22:01:36.439Z,20.37
2023-02-07T22:07:29.521Z,20.17
2023-02-07T22:13:23.941Z,19.00
2023-02-07T22:19:17.590Z,20.63
2023-02-07T22:25:10.976Z,21.20
2023-02-07T22:31:10.166Z,20.70
2023-02-07T22:37:04.735Z,19.87
2023-02-07T22:42:58.096Z,21.57
2023-02-07T22:48:53.338Z,20.07
2023-02-07T22:54:46.748Z,19.77
2023-02-07T23:00:40.481Z,18.90
2023-02-07T23:06:35.650Z,21.30
2023-02-07T23:12:28.610Z,19.33
2023-02-07T23:18:21.901Z,17.20
2023-02-07T23:24:17.420Z,17.90
2023-02-07T23:30:12.226Z,19.63
2023-02-07T23:36:06.775Z,16.93
2023-02-07T23:42:01.607Z,17.60
2023-02-07T23:47:55.202Z,17.60
2023-02-07T23:53:48.819Z,17.53
2023-02-07T23:59:43.559Z,18.13
